Time;durP1;ratioP1;P1;durP2;ratioP2;P2;SDS_P1;SDS_P2;PMS_P1;PMS_P2;Temp;Humidity;BMP_temperature;BMP_pressure;BME280_temperature;BME280_humidity;BME280_pressure;Samples;Min_cycle;Max_cycle;Signal;HPM_P1;HPM_P2
2023/09/13 00:01:17;;;;;;;11.93;7.35;;;18.90;99.90;;;;;;5082004;28;20041;-85
2023/09/13 00:03:42;;;;;;;11.25;7.10;;;18.90;99.90;;;;;;5066924;28;20180;-84
2023/09/13 00:06:08;;;;;;;9.88;6.68;;;18.90;99.90;;;;;;5066293;28;20063;-83
2023/09/13 00:08:33;;;;;;;10.43;6.90;;;18.90;99.90;;;;;;5067412;28;20055;-84
2023/09/13 00:11:03;;;;;;;14.93;6.55;;;18.80;99.90;;;;;;5067705;28;20040;-85
2023/09/13 00:13:29;;;;;;;8.63;5.57;;;18.90;99.90;;;;;;5079850;28;20044;-84
2023/09/13 00:15:55;;;;;;;12.20;6.25;;;18.90;99.90;;;;;;5082541;28;20055;-84
2023/09/13 00:18:21;;;;;;;11.80;6.47;;;18.90;99.90;;;;;;5066913;28;20155;-84
2023/09/13 00:20:46;;;;;;;16.30;7.03;;;18.90;99.90;;;;;;5071449;28;20036;-85
2023/09/13 00:23:12;;;;;;;14.48;6.30;;;18.80;99.90;;;;;;5081025;28;20131;-86
2023/09/13 00:25:37;;;;;;;12.63;5.85;;;18.80;99.90;;;;;;5066477;28;20075;-85
2023/09/13 00:28:03;;;;;;;9.80;5.57;;;18.70;99.90;;;;;;5065917;28;20124;-84
2023/09/13 00:30:29;;;;;;;14.82;5.88;;;18.70;99.90;;;;;;5067693;28;20051;-86
2023/09/13 00:32:54;;;;;;;8.57;5.05;;;18.60;99.90;;;;;;5084443;28;20463;-85
2023/09/13 00:35:20;;;;;;;11.82;5.22;;;18.60;99.90;;;;;;5086313;28;20375;-85
2023/09/13 00:37:46;;;;;;;9.15;4.97;;;18.60;99.90;;;;;;5091728;28;20402;-85
2023/09/13 00:40:11;;;;;;;14.65;6.05;;;18.60;99.90;;;;;;5090419;28;20043;-85
2023/09/13 00:42:37;;;;;;;9.73;5.47;;;18.50;99.90;;;;;;5090851;28;20135;-85
2023/09/13 00:45:03;;;;;;;15.65;6.10;;;18.50;99.90;;;;;;5089213;28;20080;-83
2023/09/13 00:47:28;;;;;;;13.50;5.55;;;18.50;99.90;;;;;;5087090;28;20448;-86
2023/09/13 00:49:54;;;;;;;10.82;5.85;;;18.50;99.90;;;;;;5079585;28;20055;-85
2023/09/13 00:52:21;;;;;;;13.82;4.97;;;18.50;99.90;;;;;;5090161;28;20055;-84
2023/09/13 00:54:47;;;;;;;10.05;5.10;;;18.40;99.90;;;;;;5069642;28;20123;-84
2023/09/13 00:57:13;;;;;;;11.10;4.93;;;18.40;99.90;;;;;;5070611;28;20123;-85
2023/09/13 00:59:39;;;;;;;10.73;5.35;;;18.40;99.90;;;;;;5076220;28;20547;-85
2023/09/13 01:02:04;;;;;;;9.98;5.10;;;18.40;99.90;;;;;;5085554;28;20106;-85
2023/09/13 01:04:33;;;;;;;9.70;4.88;;;18.40;99.90;;;;;;5068085;28;20052;-84
2023/09/13 01:06:59;;;;;;;8.32;4.97;;;18.40;99.90;;;;;;5070367;28;20041;-84
2023/09/13 01:09:25;;;;;;;10.80;5.05;;;18.40;99.90;;;;;;5069774;28;20040;-84
2023/09/13 01:11:51;;;;;;;9.70;4.60;;;18.50;99.90;;;;;;5070182;28;20114;-85
2023/09/13 01:14:18;;;;;;;8.65;4.85;;;18.50;99.90;;;;;;5070483;28;20039;-85
2023/09/13 01:16:55;;;;;;;9.70;4.80;;;18.50;99.90;;;;;;5077663;28;20048;-86
2023/09/13 01:19:26;;;;;;;8.30;4.35;;;18.50;99.90;;;;;;5071217;28;20047;-86
2023/09/13 01:22:13;;;;;;;8.70;4.47;;;18.50;99.90;;;;;;5070228;28;20601;-87
2023/09/13 01:24:48;;;;;;;6.68;4.05;;;18.50;99.90;;;;;;5071242;28;20513;-86
2023/09/13 01:27:39;;;;;;;10.55;4.13;;;18.40;99.90;;;;;;5088736;28;20051;-86
2023/09/13 01:30:07;;;;;;;8.05;4.03;;;18.40;99.90;;;;;;5079456;28;20078;-85
2023/09/13 01:32:36;;;;;;;8.77;3.95;;;18.30;99.90;;;;;;5055058;28;20044;-85
2023/09/13 01:35:02;;;;;;;9.68;3.92;;;18.30;99.90;;;;;;5086985;28;20051;-85
2023/09/13 01:37:30;;;;;;;10.30;3.85;;;18.30;99.90;;;;;;5083390;28;20075;-86
2023/09/13 01:39:56;;;;;;;6.20;3.65;;;18.30;99.90;;;;;;5071569;28;20077;-84
2023/09/13 01:42:23;;;;;;;8.55;3.70;;;18.20;99.90;;;;;;5078697;28;20047;-85
2023/09/13 01:44:50;;;;;;;6.93;3.10;;;18.20;99.90;;;;;;5068764;28;20139;-85
2023/09/13 01:47:18;;;;;;;7.97;3.35;;;18.20;99.90;;;;;;5084293;28;20102;-86
2023/09/13 01:49:45;;;;;;;8.85;3.70;;;18.20;99.90;;;;;;5088699;28;20529;-85
2023/09/13 01:52:11;;;;;;;9.25;3.80;;;18.20;99.90;;;;;;5068459;28;20655;-85
2023/09/13 01:54:37;;;;;;;8.77;3.40;;;18.20;99.90;;;;;;5069308;28;20094;-85
2023/09/13 01:57:03;;;;;;;7.40;3.33;;;18.20;99.90;;;;;;5069753;28;20045;-85
2023/09/13 01:59:28;;;;;;;5.68;3.10;;;18.10;99.90;;;;;;5068805;28;20091;-85
2023/09/13 02:01:54;;;;;;;7.45;3.17;;;18.10;99.90;;;;;;5069669;28;20045;-85
2023/09/13 02:04:20;;;;;;;7.18;3.05;;;18.10;99.90;;;;;;5073080;28;20756;-87
2023/09/13 02:06:45;;;;;;;10.40;3.60;;;18.10;99.90;;;;;;5080939;28;20041;-86
2023/09/13 02:09:11;;;;;;;9.23;3.58;;;18.10;99.90;;;;;;5081565;28;20181;-85
2023/09/13 02:11:36;;;;;;;8.63;3.17;;;18.00;99.90;;;;;;5069083;28;20055;-86
2023/09/13 02:14:02;;;;;;;5.78;3.03;;;17.90;99.90;;;;;;5068602;28;20758;-86
2023/09/13 02:16:28;;;;;;;11.00;3.40;;;17.90;99.90;;;;;;5084499;28;20181;-86
2023/09/13 02:18:53;;;;;;;6.47;3.45;;;17.80;99.90;;;;;;5067710;28;20151;-85
2023/09/13 02:21:19;;;;;;;9.23;3.08;;;17.80;99.90;;;;;;5088816;28;20048;-86
2023/09/13 02:23:45;;;;;;;8.52;3.28;;;17.70;99.90;;;;;;5074250;28;20110;-86
2023/09/13 02:26:21;;;;;;;7.32;2.72;;;17.70;99.90;;;;;;5086016;28;20044;-85
2023/09/13 02:28:47;;;;;;;8.35;2.90;;;17.60;99.90;;;;;;5089170;28;20044;-86
2023/09/13 02:31:12;;;;;;;5.78;3.08;;;17.50;99.90;;;;;;5085186;28;20085;-86
2023/09/13 02:33:38;;;;;;;6.50;2.85;;;17.70;99.90;;;;;;5067989;28;20574;-86
2023/09/13 02:36:04;;;;;;;9.82;3.15;;;17.50;99.90;;;;;;5077874;28;20040;-85
2023/09/13 02:38:29;;;;;;;7.88;2.90;;;17.50;99.90;;;;;;5074398;28;20406;-86
2023/09/13 02:40:55;;;;;;;6.18;2.70;;;17.40;99.90;;;;;;5074970;28;20194;-87
2023/09/13 02:43:21;;;;;;;7.53;2.65;;;17.40;99.90;;;;;;5069095;28;20080;-86
2023/09/13 02:45:46;;;;;;;7.55;2.63;;;17.40;99.90;;;;;;5072229;28;20128;-85
2023/09/13 02:48:12;;;;;;;8.65;2.75;;;17.30;99.90;;;;;;5088652;28;20109;-86
2023/09/13 02:50:41;;;;;;;6.18;2.60;;;17.30;99.90;;;;;;5087848;28;20055;-86
2023/09/13 02:53:06;;;;;;;6.63;2.88;;;17.30;99.90;;;;;;5088038;28;20086;-85
2023/09/13 02:55:32;;;;;;;7.05;2.70;;;17.30;99.90;;;;;;5089376;28;20102;-86
2023/09/13 02:57:57;;;;;;;7.15;2.63;;;17.30;99.90;;;;;;5086512;28;20039;-86
2023/09/13 03:00:23;;;;;;;10.35;2.67;;;17.20;99.90;;;;;;5073245;28;20040;-85
2023/09/13 03:02:49;;;;;;;9.20;2.63;;;17.20;99.90;;;;;;5088143;28;20085;-86
2023/09/13 03:05:15;;;;;;;6.15;2.30;;;17.20;99.90;;;;;;5085836;28;20063;-86
2023/09/13 03:07:41;;;;;;;9.57;2.88;;;17.20;99.90;;;;;;5080729;28;20056;-85
2023/09/13 03:10:16;;;;;;;5.55;2.50;;;17.10;99.90;;;;;;5088211;28;20044;-85
2023/09/13 03:12:41;;;;;;;6.22;2.30;;;17.10;99.90;;;;;;5076460;28;20055;-86
2023/09/13 03:15:07;;;;;;;5.90;2.50;;;17.10;99.90;;;;;;5069022;28;20033;-87
2023/09/13 03:17:32;;;;;;;5.15;2.50;;;17.10;99.90;;;;;;5068414;28;20258;-86
2023/09/13 03:19:58;;;;;;;6.70;2.42;;;17.10;99.90;;;;;;5067763;28;20040;-86
2023/09/13 03:22:24;;;;;;;7.18;2.65;;;17.10;99.90;;;;;;5068287;28;20040;-86
2023/09/13 03:24:50;;;;;;;6.43;2.40;;;17.10;99.90;;;;;;5076816;28;20047;-86
2023/09/13 03:27:15;;;;;;;5.95;2.17;;;17.10;99.90;;;;;;5087709;28;20430;-86
2023/09/13 03:29:41;;;;;;;6.18;2.10;;;17.10;99.90;;;;;;5080994;28;20418;-86
2023/09/13 03:32:07;;;;;;;6.38;2.20;;;17.10;99.90;;;;;;5067683;28;20047;-86
2023/09/13 03:34:33;;;;;;;6.05;2.40;;;17.10;99.90;;;;;;5067594;28;20123;-87
2023/09/13 03:36:58;;;;;;;6.20;2.22;;;17.10;99.90;;;;;;5049816;28;20053;-88
2023/09/13 03:39:28;;;;;;;8.13;2.38;;;17.10;99.90;;;;;;5068650;28;20040;-90
2023/09/13 03:41:53;;;;;;;6.95;2.63;;;17.00;99.90;;;;;;5068143;28;20056;-88
2023/09/13 03:44:19;;;;;;;6.72;2.40;;;17.00;99.90;;;;;;5083362;28;20043;-90
2023/09/13 03:46:44;;;;;;;5.70;2.67;;;17.00;99.90;;;;;;5074677;28;20131;-88
2023/09/13 03:49:10;;;;;;;6.15;2.30;;;17.00;99.90;;;;;;5087132;28;20040;-89
2023/09/13 03:51:35;;;;;;;5.82;2.60;;;16.90;99.90;;;;;;5087436;28;20058;-88
2023/09/13 03:54:02;;;;;;;8.02;2.42;;;16.80;99.90;;;;;;5087405;28;20052;-88
2023/09/13 03:56:28;;;;;;;7.65;2.45;;;16.80;99.90;;;;;;5087119;28;20521;-88
2023/09/13 03:58:54;;;;;;;7.45;2.65;;;16.70;99.90;;;;;;5066889;28;20890;-88
2023/09/13 04:01:20;;;;;;;7.32;2.80;;;16.70;99.90;;;;;;5067992;28;20047;-88
2023/09/13 04:03:45;;;;;;;3.90;2.28;;;16.70;99.90;;;;;;5080375;28;20036;-88
2023/09/13 04:06:11;;;;;;;6.55;2.20;;;16.60;99.90;;;;;;5086887;28;20051;-88
2023/09/13 04:08:36;;;;;;;6.32;2.35;;;16.60;99.90;;;;;;5090566;28;20043;-87
2023/09/13 04:11:02;;;;;;;6.00;2.50;;;16.60;99.90;;;;;;5079311;28;20134;-88
2023/09/13 04:13:28;;;;;;;8.27;3.42;;;16.60;99.90;;;;;;5072036;28;20040;-87
2023/09/13 04:15:53;;;;;;;6.32;2.38;;;16.60;99.90;;;;;;5072001;28;20791;-86
2023/09/13 04:18:19;;;;;;;7.40;2.70;;;16.60;99.90;;;;;;5070280;28;20457;-87
2023/09/13 04:20:46;;;;;;;6.70;2.20;;;16.60;99.90;;;;;;5071678;28;20406;-87
2023/09/13 04:23:12;;;;;;;6.20;2.38;;;16.50;99.90;;;;;;5071672;28;20094;-85
2023/09/13 04:25:38;;;;;;;6.43;2.72;;;16.60;99.90;;;;;;5054035;28;20045;-86
2023/09/13 04:28:03;;;;;;;5.25;2.55;;;16.60;99.90;;;;;;5071407;28;20046;-86
2023/09/13 04:30:29;;;;;;;6.40;2.45;;;16.60;99.90;;;;;;5071860;28;20045;-87
2023/09/13 04:32:55;;;;;;;6.05;2.45;;;16.60;99.90;;;;;;5071556;28;20066;-85
2023/09/13 04:35:21;;;;;;;7.93;2.88;;;16.60;99.90;;;;;;5071515;28;20048;-87
2023/09/13 04:37:47;;;;;;;8.68;3.30;;;16.60;99.90;;;;;;5071492;28;20632;-86
2023/09/13 04:40:13;;;;;;;6.93;2.58;;;16.60;99.90;;;;;;5085194;28;20123;-87
2023/09/13 04:42:46;;;;;;;8.43;2.75;;;16.60;99.90;;;;;;5091403;28;20047;-85
2023/09/13 04:45:12;;;;;;;7.53;2.42;;;16.60;99.90;;;;;;5082394;28;20106;-86
2023/09/13 04:47:38;;;;;;;8.82;3.00;;;16.50;99.90;;;;;;5071218;28;20495;-87
2023/09/13 04:50:05;;;;;;;9.63;3.22;;;16.50;99.90;;;;;;5069707;28;20052;-86
2023/09/13 04:52:30;;;;;;;6.32;2.80;;;16.50;99.90;;;;;;5071380;28;20098;-86
2023/09/13 04:54:56;;;;;;;6.70;2.78;;;16.50;99.90;;;;;;5070132;28;20048;-87
2023/09/13 04:57:21;;;;;;;5.00;2.60;;;16.50;99.90;;;;;;5069476;28;20040;-87
2023/09/13 04:59:48;;;;;;;6.70;2.83;;;16.50;99.90;;;;;;5077602;28;20093;-87
2023/09/13 05:02:14;;;;;;;7.65;2.58;;;16.50;99.90;;;;;;5075476;28;20044;-86
2023/09/13 05:04:40;;;;;;;11.00;3.00;;;16.50;99.90;;;;;;5071830;28;20492;-86
2023/09/13 05:07:06;;;;;;;9.95;2.85;;;16.50;99.90;;;;;;5087266;28;20048;-86
2023/09/13 05:09:32;;;;;;;5.55;2.65;;;16.50;99.90;;;;;;5070613;28;20040;-86
2023/09/13 05:11:58;;;;;;;6.85;2.40;;;16.50;99.90;;;;;;5086818;28;20040;-86
2023/09/13 05:14:23;;;;;;;8.05;2.97;;;16.60;99.90;;;;;;5072458;28;20076;-87
2023/09/13 05:16:49;;;;;;;9.95;2.80;;;16.50;99.90;;;;;;5078099;28;20036;-86
2023/09/13 05:19:14;;;;;;;7.05;2.53;;;16.50;99.90;;;;;;5069225;28;20047;-89
2023/09/13 05:21:40;;;;;;;5.35;2.40;;;16.50;99.90;;;;;;5072162;28;20090;-88
2023/09/13 05:24:06;;;;;;;7.88;2.33;;;16.50;99.90;;;;;;5086095;28;20539;-89
2023/09/13 05:26:31;;;;;;;7.85;2.45;;;16.50;99.90;;;;;;5089888;28;20069;-86
2023/09/13 05:28:58;;;;;;;8.57;2.22;;;16.30;99.90;;;;;;5091028;28;20140;-88
2023/09/13 05:31:23;;;;;;;6.60;1.92;;;16.10;99.90;;;;;;5078259;28;20045;-88
2023/09/13 05:33:49;;;;;;;8.05;2.40;;;15.90;99.90;;;;;;5076767;28;20487;-86
2023/09/13 05:36:16;;;;;;;5.38;2.00;;;15.80;99.90;;;;;;5076192;28;20130;-88
2023/09/13 05:38:41;;;;;;;5.85;2.40;;;15.70;99.90;;;;;;5071543;28;20080;-85
2023/09/13 05:41:08;;;;;;;6.40;2.10;;;15.60;99.90;;;;;;5071136;28;20076;-85
2023/09/13 05:43:42;;;;;;;10.52;2.20;;;15.50;99.90;;;;;;5073445;28;20150;-84
2023/09/13 05:46:08;;;;;;;6.97;2.20;;;15.40;99.90;;;;;;5090431;28;20048;-84
2023/09/13 05:48:35;;;;;;;7.47;2.22;;;15.30;99.90;;;;;;5089417;28;20070;-85
2023/09/13 05:51:01;;;;;;;8.52;2.50;;;15.30;99.90;;;;;;5083639;28;20092;-84
2023/09/13 05:53:28;;;;;;;4.28;1.90;;;15.30;99.90;;;;;;5089249;28;20044;-84
2023/09/13 05:55:53;;;;;;;8.27;2.22;;;15.20;99.90;;;;;;5074781;28;20056;-82
2023/09/13 05:58:19;;;;;;;9.07;2.38;;;14.80;99.90;;;;;;5070382;28;20044;-87
2023/09/13 06:00:49;;;;;;;8.15;2.17;;;14.90;99.90;;;;;;5053477;28;20040;-87
2023/09/13 06:03:19;;;;;;;6.43;2.03;;;15.00;99.90;;;;;;5067880;28;20487;-85
2023/09/13 06:05:51;;;;;;;7.60;2.60;;;15.00;99.90;;;;;;5070663;28;20041;-85
2023/09/13 06:08:17;;;;;;;6.10;2.00;;;14.90;99.90;;;;;;5089371;28;20048;-86
2023/09/13 06:10:44;;;;;;;5.30;1.90;;;14.80;99.90;;;;;;5086146;28;20483;-87
2023/09/13 06:13:09;;;;;;;3.55;1.58;;;14.70;99.90;;;;;;5086935;28;20047;-86
2023/09/13 06:15:35;;;;;;;4.88;1.42;;;14.70;99.90;;;;;;5089527;28;20036;-84
2023/09/13 06:18:00;;;;;;;3.90;1.42;;;14.60;99.90;;;;;;5079674;28;20098;-82
2023/09/13 06:20:26;;;;;;;7.45;1.65;;;14.50;99.90;;;;;;5070817;28;20140;-85
2023/09/13 06:22:56;;;;;;;6.88;1.80;;;14.40;99.90;;;;;;5069412;28;20055;-84
2023/09/13 06:25:26;;;;;;;7.72;2.15;;;14.40;99.90;;;;;;5070856;28;20143;-84
2023/09/13 06:27:51;;;;;;;5.05;2.35;;;14.40;99.90;;;;;;5051675;28;20656;-83
2023/09/13 06:30:18;;;;;;;6.90;2.00;;;14.30;99.90;;;;;;5083176;28;20188;-83
2023/09/13 06:32:44;;;;;;;6.85;1.92;;;14.10;99.90;;;;;;5073179;28;20028;-85
2023/09/13 06:35:11;;;;;;;8.90;2.17;;;14.40;99.90;;;;;;5070352;28;20125;-85
2023/09/13 06:37:37;;;;;;;5.80;1.90;;;14.10;99.90;;;;;;5074990;28;20063;-86
2023/09/13 06:40:03;;;;;;;6.22;2.45;;;14.00;99.90;;;;;;5075218;28;20562;-87
2023/09/13 06:42:29;;;;;;;8.95;1.80;;;14.00;99.90;;;;;;5067365;28;20032;-86
2023/09/13 06:44:54;;;;;;;5.80;1.95;;;14.00;99.90;;;;;;5065237;28;20053;-87
2023/09/13 06:47:20;;;;;;;6.47;2.00;;;14.00;99.90;;;;;;5065777;28;20040;-86
2023/09/13 06:49:46;;;;;;;5.25;1.90;;;15.00;99.90;;;;;;5065228;28;20072;-87
2023/09/13 06:52:11;;;;;;;7.35;2.00;;;14.00;99.90;;;;;;5066754;28;20044;-89
2023/09/13 06:54:37;;;;;;;6.38;1.80;;;14.00;99.90;;;;;;5069197;28;20165;-88
2023/09/13 06:57:05;;;;;;;4.53;1.70;;;14.00;99.90;;;;;;5077122;28;20052;-88
2023/09/13 06:59:32;;;;;;;7.68;2.30;;;14.00;99.90;;;;;;5070907;28;20048;-88
2023/09/13 07:01:58;;;;;;;6.10;2.05;;;14.00;99.90;;;;;;5077162;28;20046;-87
2023/09/13 07:04:23;;;;;;;7.65;2.38;;;14.00;99.90;;;;;;5081614;28;20453;-87
2023/09/13 07:06:49;;;;;;;5.18;2.13;;;14.00;99.90;;;;;;5067375;28;20379;-87
2023/09/13 07:09:15;;;;;;;6.55;2.60;;;14.00;99.90;;;;;;5067684;28;20125;-87
2023/09/13 07:11:40;;;;;;;7.35;2.50;;;14.10;99.90;;;;;;5066745;28;20132;-87
2023/09/13 07:14:06;;;;;;;9.45;2.83;;;14.00;99.90;;;;;;5067183;28;20182;-86
2023/09/13 07:16:31;;;;;;;9.52;2.78;;;14.10;99.90;;;;;;5067962;28;20102;-85
2023/09/13 07:18:57;;;;;;;9.20;3.42;;;14.10;99.90;;;;;;5068197;28;20041;-82
2023/09/13 07:21:22;;;;;;;7.82;3.30;;;14.20;99.90;;;;;;5082504;28;20997;-86
2023/09/13 07:23:48;;;;;;;7.72;3.40;;;14.10;99.90;;;;;;5067123;28;20036;-87
2023/09/13 07:26:14;;;;;;;6.97;2.67;;;14.20;99.90;;;;;;5070582;28;20047;-85
2023/09/13 07:28:39;;;;;;;9.50;3.30;;;14.20;99.90;;;;;;5086033;28;20127;-86
2023/09/13 07:31:07;;;;;;;10.35;3.22;;;14.30;99.90;;;;;;5088175;28;20058;-87
2023/09/13 07:33:32;;;;;;;9.05;3.03;;;14.30;99.90;;;;;;5064441;28;20040;-81
2023/09/13 07:35:58;;;;;;;11.00;3.33;;;14.30;99.90;;;;;;5068218;28;20048;-87
2023/09/13 07:38:23;;;;;;;9.23;3.38;;;14.30;99.90;;;;;;5073566;28;20076;-87
2023/09/13 07:40:49;;;;;;;8.27;3.35;;;14.40;99.90;;;;;;5088138;28;20040;-87
2023/09/13 07:43:16;;;;;;;11.77;3.75;;;14.40;99.90;;;;;;5087034;28;20042;-86
2023/09/13 07:45:41;;;;;;;11.40;2.97;;;14.40;99.90;;;;;;5088120;28;20083;-87
2023/09/13 07:48:07;;;;;;;9.70;3.50;;;14.50;99.90;;;;;;5086024;28;20874;-86
2023/09/13 07:50:40;;;;;;;8.80;3.08;;;14.50;99.90;;;;;;5087957;28;20044;-86
2023/09/13 07:53:06;;;;;;;9.02;3.45;;;14.50;99.90;;;;;;5086373;28;20102;-85
2023/09/13 07:55:32;;;;;;;15.85;3.78;;;14.50;99.90;;;;;;5076700;28;20044;-85
2023/09/13 07:57:57;;;;;;;9.93;3.13;;;14.60;99.90;;;;;;5067670;28;20037;-84
2023/09/13 08:00:23;;;;;;;9.10;2.95;;;14.60;99.90;;;;;;5066811;28;20056;-84
2023/09/13 08:02:49;;;;;;;15.13;3.40;;;15.50;99.90;;;;;;5066703;28;20070;-85
2023/09/13 08:05:16;;;;;;;14.05;3.20;;;14.80;99.90;;;;;;5069929;28;20440;-86
2023/09/13 08:07:43;;;;;;;8.32;2.95;;;14.70;99.90;;;;;;5087523;28;20040;-85
2023/09/13 08:10:09;;;;;;;9.43;3.05;;;14.70;99.90;;;;;;5085778;28;20099;-86
2023/09/13 08:12:35;;;;;;;7.85;3.35;;;14.60;99.90;;;;;;5074501;28;20516;-87
2023/09/13 08:15:00;;;;;;;11.30;3.38;;;14.70;99.90;;;;;;5086472;28;20044;-86
2023/09/13 08:17:26;;;;;;;11.10;3.20;;;14.70;99.90;;;;;;5075170;28;20032;-85
2023/09/13 08:19:51;;;;;;;9.68;2.97;;;14.80;99.90;;;;;;5082316;28;20173;-87
2023/09/13 08:22:17;;;;;;;10.23;2.80;;;14.70;99.90;;;;;;5070083;28;20132;-87
2023/09/13 08:24:43;;;;;;;10.95;3.17;;;14.90;99.90;;;;;;5089168;28;20065;-86
2023/09/13 08:27:08;;;;;;;9.40;3.05;;;14.90;99.90;;;;;;5089292;28;20147;-86
2023/09/13 08:29:35;;;;;;;10.90;3.35;;;14.90;99.90;;;;;;5069254;28;20050;-85
2023/09/13 08:32:00;;;;;;;7.20;2.97;;;14.90;99.90;;;;;;5070289;28;20414;-87
2023/09/13 08:34:26;;;;;;;12.40;3.60;;;14.80;99.90;;;;;;5068477;28;20040;-88
2023/09/13 08:36:56;;;;;;;11.27;3.50;;;14.90;99.90;;;;;;5066361;28;20143;-88
2023/09/13 08:39:22;;;;;;;10.88;3.40;;;14.90;99.90;;;;;;5081502;28;20089;-88
2023/09/13 08:41:52;;;;;;;9.45;3.40;;;15.00;99.90;;;;;;5089399;28;20047;-88
2023/09/13 08:44:22;;;;;;;9.30;2.90;;;15.00;99.90;;;;;;5086170;28;20579;-86
2023/09/13 08:46:55;;;;;;;9.77;2.92;;;15.00;99.90;;;;;;5087438;28;20044;-87
2023/09/13 08:49:21;;;;;;;6.03;2.58;;;15.50;99.90;;;;;;5086387;28;20052;-87
2023/09/13 08:51:48;;;;;;;7.70;2.70;;;15.10;99.90;;;;;;5086625;28;20102;-88
2023/09/13 08:54:15;;;;;;;7.75;2.85;;;15.10;99.90;;;;;;5073587;28;20084;-86
2023/09/13 08:56:42;;;;;;;7.25;2.70;;;15.10;99.90;;;;;;5071474;28;20044;-87
2023/09/13 08:59:09;;;;;;;8.90;2.83;;;15.20;99.90;;;;;;5070372;28;20049;-88
2023/09/13 09:01:36;;;;;;;6.82;2.40;;;15.20;99.90;;;;;;5068561;28;20040;-87
2023/09/13 09:04:02;;;;;;;9.40;3.03;;;15.30;99.90;;;;;;5070850;28;20114;-87
2023/09/13 09:06:30;;;;;;;5.53;2.60;;;15.40;99.90;;;;;;5069777;28;20174;-87
2023/09/13 09:08:56;;;;;;;7.15;2.33;;;15.50;99.90;;;;;;5071013;28;20040;-87
2023/09/13 09:11:25;;;;;;;8.15;2.38;;;15.50;99.90;;;;;;5087209;28;20055;-87
2023/09/13 09:13:53;;;;;;;9.02;2.50;;;15.70;99.90;;;;;;5069393;28;20544;-87
2023/09/13 09:16:21;;;;;;;4.38;2.22;;;15.80;99.90;;;;;;5081947;28;20417;-87
2023/09/13 09:18:48;;;;;;;5.57;1.95;;;15.90;99.90;;;;;;5089309;28;20115;-87
2023/09/13 09:21:15;;;;;;;6.32;1.90;;;16.10;99.90;;;;;;5073009;28;20049;-87
2023/09/13 09:23:41;;;;;;;5.80;1.95;;;16.00;99.90;;;;;;5069767;28;20563;-86
2023/09/13 09:26:07;;;;;;;6.18;2.03;;;16.10;99.90;;;;;;5070858;28;20044;-87
2023/09/13 09:28:32;;;;;;;7.82;1.77;;;16.10;99.90;;;;;;5070958;28;20041;-87
2023/09/13 09:31:01;;;;;;;2.88;1.70;;;15.90;99.90;;;;;;5069386;28;20048;-86
2023/09/13 09:33:28;;;;;;;4.82;1.98;;;16.00;99.90;;;;;;5069990;28;20040;-86
2023/09/13 09:35:56;;;;;;;6.45;1.88;;;16.20;99.90;;;;;;5069319;28;20677;-86
2023/09/13 09:38:23;;;;;;;6.72;1.77;;;15.90;99.90;;;;;;5081233;28;20494;-87
2023/09/13 09:40:50;;;;;;;5.50;2.25;;;15.90;99.90;;;;;;5071580;28;20044;-87
2023/09/13 09:43:16;;;;;;;4.35;1.80;;;15.90;99.90;;;;;;5071926;28;20063;-86
2023/09/13 09:45:42;;;;;;;5.20;1.65;;;16.00;99.90;;;;;;5090290;28;20436;-86
2023/09/13 09:48:08;;;;;;;6.70;2.00;;;16.00;99.90;;;;;;5089959;28;20152;-87
2023/09/13 09:50:34;;;;;;;7.50;2.30;;;16.10;99.90;;;;;;5090054;28;20568;-86
2023/09/13 09:53:08;;;;;;;6.70;2.15;;;16.10;99.90;;;;;;5090088;28;20101;-86
2023/09/13 09:55:36;;;;;;;5.88;1.90;;;16.00;99.90;;;;;;5081403;28;20123;-87
2023/09/13 09:58:02;;;;;;;7.47;2.30;;;15.90;99.90;;;;;;5086084;28;20055;-86
2023/09/13 10:00:27;;;;;;;4.55;1.73;;;15.90;99.90;;;;;;5090427;28;20048;-86
2023/09/13 10:02:53;;;;;;;7.88;2.13;;;15.80;99.90;;;;;;5089606;28;20761;-87
2023/09/13 10:05:20;;;;;;;9.30;2.45;;;15.70;99.90;;;;;;5088540;28;20063;-86
2023/09/13 10:07:56;;;;;;;7.13;2.47;;;15.70;99.90;;;;;;5088682;28;20055;-86
2023/09/13 10:10:35;;;;;;;6.80;2.55;;;15.70;99.90;;;;;;5062197;28;20068;-86
2023/09/13 10:13:03;;;;;;;6.13;2.80;;;15.80;99.90;;;;;;5069594;28;20051;-86
2023/09/13 10:15:29;;;;;;;6.28;2.15;;;15.80;99.90;;;;;;5089816;28;20048;-83
2023/09/13 10:17:55;;;;;;;8.25;2.42;;;16.00;99.90;;;;;;5067965;28;20094;-82
2023/09/13 10:20:23;;;;;;;5.93;1.92;;;16.20;99.90;;;;;;5069747;28;20048;-85
2023/09/13 10:22:50;;;;;;;8.43;2.22;;;16.40;99.90;;;;;;5070369;28;20041;-82
2023/09/13 10:25:18;;;;;;;5.13;1.98;;;16.50;99.90;;;;;;5068251;28;20076;-84
2023/09/13 10:27:48;;;;;;;4.68;2.25;;;16.60;99.90;;;;;;5070477;28;20041;-84
2023/09/13 10:30:20;;;;;;;2.75;1.55;;;16.50;99.90;;;;;;5080654;28;20697;-87
2023/09/13 10:32:47;;;;;;;;;;;16.30;99.90;;;;;;5051469;28;20053;-84
2023/09/13 10:35:15;;;;;;;5.00;1.80;;;16.10;99.90;;;;;;5067278;28;20018;-86
2023/09/13 10:38:03;;;;;;;5.88;2.00;;;15.90;99.90;;;;;;5069031;28;20119;-86
2023/09/13 10:40:39;;;;;;;4.82;2.10;;;16.00;99.90;;;;;;5069767;28;20498;-86
2023/09/13 10:43:06;;;;;;;6.75;2.53;;;15.90;99.90;;;;;;5078051;28;20656;-86
2023/09/13 10:45:31;;;;;;;4.80;2.20;;;15.80;99.90;;;;;;5074558;28;20053;-85
2023/09/13 10:47:59;;;;;;;5.80;2.03;;;15.80;99.90;;;;;;5068368;28;20044;-87
2023/09/13 10:50:26;;;;;;;7.07;2.40;;;15.90;99.90;;;;;;5067054;28;20383;-86
2023/09/13 10:52:53;;;;;;;7.07;2.85;;;15.90;99.90;;;;;;5080041;28;20123;-85
2023/09/13 10:55:19;;;;;;;8.18;2.50;;;16.00;99.90;;;;;;5070044;28;20051;-85
2023/09/13 10:57:46;;;;;;;5.18;2.20;;;16.10;99.90;;;;;;5086027;28;20116;-87
2023/09/13 11:00:14;;;;;;;5.95;2.33;;;16.20;99.90;;;;;;5083958;28;20086;-85
2023/09/13 11:02:41;;;;;;;7.20;2.22;;;16.30;99.90;;;;;;5067572;28;20037;-85
2023/09/13 11:05:08;;;;;;;5.88;2.38;;;16.40;99.90;;;;;;5068152;28;20497;-85
2023/09/13 11:07:41;;;;;;;4.70;1.70;;;16.50;99.90;;;;;;5068749;28;20036;-86
2023/09/13 11:10:19;;;;;;;7.10;2.75;;;16.50;99.90;;;;;;5075938;28;20135;-84
2023/09/13 11:12:48;;;;;;;5.53;1.98;;;16.50;99.90;;;;;;5087817;28;20040;-83
2023/09/13 11:15:23;;;;;;;7.47;3.00;;;16.60;99.90;;;;;;5086496;28;20780;-83
2023/09/13 11:17:52;;;;;;;6.10;2.47;;;16.60;99.90;;;;;;5077113;28;20036;-83
2023/09/13 11:20:32;;;;;;;6.32;2.50;;;16.70;99.90;;;;;;5066865;28;20498;-83
2023/09/13 11:23:01;;;;;;;5.30;2.45;;;16.60;99.90;;;;;;5084351;28;20079;-82
2023/09/13 11:25:34;;;;;;;5.20;2.20;;;17.20;99.90;;;;;;5087058;28;20062;-83
2023/09/13 11:28:07;;;;;;;7.55;2.95;;;17.50;99.90;;;;;;5086509;28;20142;-82
2023/09/13 11:30:49;;;;;;;4.13;2.17;;;17.10;99.90;;;;;;5068129;28;20041;-82
2023/09/13 11:33:15;;;;;;;3.58;2.10;;;16.50;99.90;;;;;;5066686;28;20067;-82
2023/09/13 11:35:42;;;;;;;4.55;2.22;;;16.50;99.90;;;;;;5068636;28;20048;-82
2023/09/13 11:38:08;;;;;;;7.60;2.42;;;16.60;99.90;;;;;;5067664;28;20044;-82
2023/09/13 11:40:34;;;;;;;6.57;2.75;;;16.70;99.90;;;;;;5068563;28;20037;-83
2023/09/13 11:43:00;;;;;;;4.20;2.30;;;16.80;99.90;;;;;;5049873;28;20048;-83
2023/09/13 11:45:30;;;;;;;3.78;2.55;;;16.80;99.90;;;;;;5049943;28;20040;-84
2023/09/13 11:47:56;;;;;;;5.82;2.28;;;16.90;99.90;;;;;;5067820;28;20125;-82
2023/09/13 11:50:22;;;;;;;3.38;2.00;;;16.90;99.90;;;;;;5066741;28;20065;-83
2023/09/13 11:53:08;;;;;;;5.85;2.10;;;17.00;99.90;;;;;;5068437;28;20497;-82
2023/09/13 11:55:38;;;;;;;5.60;2.10;;;17.00;99.90;;;;;;5067773;28;20801;-83
2023/09/13 11:58:04;;;;;;;4.53;1.92;;;16.90;99.90;;;;;;5067645;28;20116;-82
2023/09/13 12:00:29;;;;;;;5.50;2.25;;;17.30;99.90;;;;;;5079096;28;20052;-82
2023/09/13 12:02:56;;;;;;;5.35;1.88;;;16.80;99.90;;;;;;5087522;28;20047;-82
2023/09/13 12:05:24;;;;;;;3.13;1.95;;;16.80;99.90;;;;;;5088135;28;20040;-83
2023/09/13 12:07:50;;;;;;;4.60;1.90;;;16.80;99.90;;;;;;5087909;28;20051;-83
2023/09/13 12:10:15;;;;;;;4.97;1.95;;;16.80;99.90;;;;;;5081206;28;20119;-83
2023/09/13 12:12:42;;;;;;;4.93;2.20;;;16.80;99.90;;;;;;5067403;28;20418;-83
2023/09/13 12:15:14;;;;;;;5.28;2.00;;;16.90;99.90;;;;;;5080458;28;20040;-83
2023/09/13 12:17:40;;;;;;;;;;;16.80;99.90;;;;;;5087009;28;20543;-82
2023/09/13 12:20:10;;;;;;;5.05;2.00;;;16.80;99.90;;;;;;5069660;28;19920;-82
2023/09/13 12:22:41;;;;;;;4.10;1.60;;;16.80;99.90;;;;;;5087525;28;20494;-83
2023/09/13 12:25:12;;;;;;;3.35;1.90;;;16.90;99.90;;;;;;5086062;28;20206;-83
2023/09/13 12:27:37;;;;;;;5.13;2.00;;;17.10;99.90;;;;;;5067752;28;20041;-83
2023/09/13 12:30:19;;;;;;;5.28;1.65;;;17.10;99.90;;;;;;5081445;28;20048;-82
2023/09/13 12:32:45;;;;;;;3.70;1.75;;;17.20;99.90;;;;;;5088541;28;20507;-83
2023/09/13 12:35:11;;;;;;;3.92;1.80;;;17.20;99.90;;;;;;5090943;28;20447;-82
2023/09/13 12:37:37;;;;;;;2.65;1.42;;;17.20;99.90;;;;;;5090816;28;20395;-81
2023/09/13 12:40:13;;;;;;;3.13;1.45;;;17.20;99.90;;;;;;5088611;28;20092;-82
2023/09/13 12:42:40;;;;;;;3.58;1.70;;;17.30;99.90;;;;;;5080671;28;20040;-82
2023/09/13 12:45:06;;;;;;;4.38;1.48;;;17.40;99.90;;;;;;5069843;28;20049;-82